Hayden, CO (81639)

05:15 PM MDT am 25. April 2015 (GMT -0600)
HAYDEN, COLORADO (DOWN TOWN) | | Change Station
CLOSE
Current Station
Persönliche Wetterstationen
Location: Hayden, CO
Höhe: 6352 ft
Wetterstationen in der Umgebung

Höhe 6352 ft 40.50 °N, 107.25 °W | Updated 8 seconds ago

Mostly Cloudy
Wolkig
55.4 °F
gefühlte 55.4 °F
N
1.6
Wind Wechselnd Wind aus West-Südwest
Gusts 4.0 mph

Heute
Max. -- | schwach -- °F
--% Regenrisiko
Gestern
Max. -- | schwach -- °F
Precip. -- inch
6:16 AM 7:58 PM
Erstes Viertel, 50% visible
Druck 29.78 inch
Sichtweite 10.0 Meilen
Wolken Teils Wolkig 4500 ft
Wolkig 7000 ft
Taupunkt 32 °F
Feuchtigkeit 42%
Regen 0.13 inch
Schneehöhe Nicht verfügbar..
UV 2 von 12
Pollen 7.80 von 12
Luftqualität Nicht verfügbar..
Flu Activity Sporadic
METAR KHDN 252255Z AUTO 36005KT 10SM SCT045 BKN070 11/M01 A2978 RMK AO1

More Conditions Fewer Conditions

Druck 29.78 inch
Sichtweite 10.0 Meilen
Wolken Teils Wolkig 4500 ft
Wolkig 7000 ft
Taupunkt 32 °F
Feuchtigkeit 42%
Regen 0.13 inch
Schneehöhe Nicht verfügbar..
UV 2 von 12
Pollen 7.80 von 12
Luftqualität Nicht verfügbar..
Flu Activity Sporadic
METAR KHDN 252255Z AUTO 36005KT 10SM SCT045 BKN070 11/M01 A2978 RMK AO1

More Conditions Fewer Conditions

10-Day Weather Forecast

Almanac

Astronomie

Apr. 25, 2015 Aufgang Untergang
Genaue Zeit
Bürgerliche Dämmerung
Nautische Dämmerung
Astronomische Dämmerung
Mond
Länge des sichtbaren Lichts
Tageslänge
Tomorrow will be .
, % of the Moon is Illuminated

Heutige Rekorde

State Highs State Lows

Community

WunderPhotos

Upload Photos

1,816,845 Fotos hochgeladen!

WunderBlogs® & News

Nearby

Luftqualität

  Luftqualität LQ Index Schadstoff
Not available.

Schneehöhe

Station Depth Höhe

Erdbebenaktivität

Stadt Distance Mag. Time & Date
Minimum magnitude displayed is 2.5.

küstennahe Wassertemperaturen

Ort Temperatur

Stations

Wetterstationen in der Umgebung

Stationsstandort Temp. Windchill Taupunkt Feuchtigkeit Wind Precip. Höhe Aktualisiert Art